sensor_id;sensor_type;location;lat;lon;timestamp;temperature;humidity
6672;DHT22;3372;48.690;12.362;2023-07-31T00:00:14;19.00;30.50
6672;DHT22;3372;48.690;12.362;2023-07-31T00:02:41;19.00;30.60
6672;DHT22;3372;48.690;12.362;2023-07-31T00:05:08;19.00;30.20
6672;DHT22;3372;48.690;12.362;2023-07-31T00:07:34;19.00;30.40
6672;DHT22;3372;48.690;12.362;2023-07-31T00:09:59;18.90;30.10
6672;DHT22;3372;48.690;12.362;2023-07-31T00:12:25;18.80;30.20
6672;DHT22;3372;48.690;12.362;2023-07-31T00:14:50;18.90;30.60
6672;DHT22;3372;48.690;12.362;2023-07-31T00:17:17;18.80;31.30
6672;DHT22;3372;48.690;12.362;2023-07-31T00:19:43;18.90;30.90
6672;DHT22;3372;48.690;12.362;2023-07-31T00:22:08;18.80;31.10
6672;DHT22;3372;48.690;12.362;2023-07-31T00:24:34;18.70;30.80
6672;DHT22;3372;48.690;12.362;2023-07-31T00:26:59;18.70;31.20
6672;DHT22;3372;48.690;12.362;2023-07-31T00:29:25;18.70;30.20
6672;DHT22;3372;48.690;12.362;2023-07-31T00:31:51;18.60;30.10
6672;DHT22;3372;48.690;12.362;2023-07-31T00:34:16;18.60;30.10
6672;DHT22;3372;48.690;12.362;2023-07-31T00:36:42;18.60;30.00
6672;DHT22;3372;48.690;12.362;2023-07-31T00:39:07;18.60;30.10
6672;DHT22;3372;48.690;12.362;2023-07-31T00:41:33;18.60;29.90
6672;DHT22;3372;48.690;12.362;2023-07-31T00:43:58;18.50;30.00
6672;DHT22;3372;48.690;12.362;2023-07-31T00:46:24;18.50;30.00
6672;DHT22;3372;48.690;12.362;2023-07-31T00:48:50;18.50;30.20
6672;DHT22;3372;48.690;12.362;2023-07-31T00:51:16;18.40;30.20
6672;DHT22;3372;48.690;12.362;2023-07-31T00:53:42;18.40;30.10
6672;DHT22;3372;48.690;12.362;2023-07-31T00:56:08;18.50;30.20
6672;DHT22;3372;48.690;12.362;2023-07-31T00:58:34;18.40;29.70
6672;DHT22;3372;48.690;12.362;2023-07-31T01:01:00;18.30;29.90
6672;DHT22;3372;48.690;12.362;2023-07-31T01:03:25;18.20;30.00
6672;DHT22;3372;48.690;12.362;2023-07-31T01:08:54;18.30;30.40
6672;DHT22;3372;48.690;12.362;2023-07-31T01:11:28;18.30;30.30
6672;DHT22;3372;48.690;12.362;2023-07-31T01:13:55;18.30;30.20
6672;DHT22;3372;48.690;12.362;2023-07-31T01:16:21;18.20;30.60
6672;DHT22;3372;48.690;12.362;2023-07-31T01:18:46;18.20;30.60
6672;DHT22;3372;48.690;12.362;2023-07-31T01:27:15;18.20;31.20
6672;DHT22;3372;48.690;12.362;2023-07-31T01:32:28;18.00;32.60
6672;DHT22;3372;48.690;12.362;2023-07-31T01:34:54;17.90;32.50
6672;DHT22;3372;48.690;12.362;2023-07-31T01:37:20;18.00;33.00
6672;DHT22;3372;48.690;12.362;2023-07-31T01:39:46;17.90;32.90
6672;DHT22;3372;48.690;12.362;2023-07-31T01:42:11;17.90;33.00
6672;DHT22;3372;48.690;12.362;2023-07-31T01:44:37;18.00;33.40
6672;DHT22;3372;48.690;12.362;2023-07-31T01:47:02;17.90;32.90
6672;DHT22;3372;48.690;12.362;2023-07-31T01:49:28;18.00;33.30
6672;DHT22;3372;48.690;12.362;2023-07-31T01:51:54;17.90;33.40
6672;DHT22;3372;48.690;12.362;2023-07-31T01:54:19;17.90;33.20
6672;DHT22;3372;48.690;12.362;2023-07-31T01:56:45;17.90;33.10
6672;DHT22;3372;48.690;12.362;2023-07-31T01:59:10;17.90;32.50
6672;DHT22;3372;48.690;12.362;2023-07-31T02:01:36;17.90;32.40
6672;DHT22;3372;48.690;12.362;2023-07-31T02:04:01;17.90;32.70
6672;DHT22;3372;48.690;12.362;2023-07-31T02:06:29;17.90;32.70
6672;DHT22;3372;48.690;12.362;2023-07-31T02:08:54;17.90;32.80
6672;DHT22;3372;48.690;12.362;2023-07-31T02:11:20;17.90;32.80
6672;DHT22;3372;48.690;12.362;2023-07-31T02:13:45;17.90;32.50
6672;DHT22;3372;48.690;12.362;2023-07-31T02:16:11;17.90;32.50
6672;DHT22;3372;48.690;12.362;2023-07-31T02:18:37;17.90;32.30
6672;DHT22;3372;48.690;12.362;2023-07-31T02:21:02;17.90;32.80
6672;DHT22;3372;48.690;12.362;2023-07-31T02:23:28;17.90;33.10
6672;DHT22;3372;48.690;12.362;2023-07-31T02:25:53;17.90;32.30
6672;DHT22;3372;48.690;12.362;2023-07-31T02:28:19;17.80;32.50
6672;DHT22;3372;48.690;12.362;2023-07-31T02:30:45;17.80;32.60
6672;DHT22;3372;48.690;12.362;2023-07-31T02:33:11;17.70;32.20
6672;DHT22;3372;48.690;12.362;2023-07-31T02:35:37;17.80;32.90
6672;DHT22;3372;48.690;12.362;2023-07-31T02:38:02;17.80;33.60
6672;DHT22;3372;48.690;12.362;2023-07-31T02:40:28;17.70;33.70
6672;DHT22;3372;48.690;12.362;2023-07-31T02:42:54;17.70;33.70
6672;DHT22;3372;48.690;12.362;2023-07-31T02:45:19;17.60;33.70
6672;DHT22;3372;48.690;12.362;2023-07-31T02:47:45;17.60;33.80
6672;DHT22;3372;48.690;12.362;2023-07-31T02:50:10;17.60;34.60
6672;DHT22;3372;48.690;12.362;2023-07-31T02:52:36;17.50;34.40
6672;DHT22;3372;48.690;12.362;2023-07-31T02:55:02;17.60;33.60
6672;DHT22;3372;48.690;12.362;2023-07-31T02:57:27;17.60;33.60
6672;DHT22;3372;48.690;12.362;2023-07-31T02:59:53;17.60;33.50
6672;DHT22;3372;48.690;12.362;2023-07-31T03:02:19;17.50;33.50
6672;DHT22;3372;48.690;12.362;2023-07-31T03:04:44;17.50;34.10
6672;DHT22;3372;48.690;12.362;2023-07-31T03:07:10;17.50;33.90
6672;DHT22;3372;48.690;12.362;2023-07-31T03:09:35;17.40;33.50
6672;DHT22;3372;48.690;12.362;2023-07-31T03:12:01;17.30;34.40
6672;DHT22;3372;48.690;12.362;2023-07-31T03:14:27;17.30;35.10
6672;DHT22;3372;48.690;12.362;2023-07-31T03:16:53;17.30;35.20
6672;DHT22;3372;48.690;12.362;2023-07-31T03:19:18;17.30;35.20
6672;DHT22;3372;48.690;12.362;2023-07-31T03:21:44;17.30;34.90
6672;DHT22;3372;48.690;12.362;2023-07-31T03:24:09;17.20;35.00
6672;DHT22;3372;48.690;12.362;2023-07-31T03:26:37;17.20;35.20
6672;DHT22;3372;48.690;12.362;2023-07-31T03:29:03;17.20;36.10
6672;DHT22;3372;48.690;12.362;2023-07-31T03:31:29;17.10;36.40
6672;DHT22;3372;48.690;12.362;2023-07-31T03:33:54;17.10;36.90
6672;DHT22;3372;48.690;12.362;2023-07-31T03:36:20;17.10;37.20
6672;DHT22;3372;48.690;12.362;2023-07-31T03:38:46;17.00;37.20
6672;DHT22;3372;48.690;12.362;2023-07-31T03:41:12;17.00;37.30
6672;DHT22;3372;48.690;12.362;2023-07-31T03:43:37;17.00;36.90
6672;DHT22;3372;48.690;12.362;2023-07-31T03:46:03;16.90;37.30
6672;DHT22;3372;48.690;12.362;2023-07-31T03:48:29;16.80;37.80
6672;DHT22;3372;48.690;12.362;2023-07-31T03:50:55;16.70;37.90
6672;DHT22;3372;48.690;12.362;2023-07-31T03:53:20;16.70;39.30
6672;DHT22;3372;48.690;12.362;2023-07-31T03:55:46;16.70;38.80
6672;DHT22;3372;48.690;12.362;2023-07-31T03:58:11;16.70;38.80
6672;DHT22;3372;48.690;12.362;2023-07-31T04:00:37;16.70;39.20
6672;DHT22;3372;48.690;12.362;2023-07-31T04:03:03;16.70;39.50
6672;DHT22;3372;48.690;12.362;2023-07-31T04:05:31;16.70;39.70
6672;DHT22;3372;48.690;12.362;2023-07-31T04:07:56;16.70;40.00
6672;DHT22;3372;48.690;12.362;2023-07-31T04:10:22;16.60;39.80
6672;DHT22;3372;48.690;12.362;2023-07-31T04:12:48;16.70;40.00
6672;DHT22;3372;48.690;12.362;2023-07-31T04:15:13;16.70;41.20
6672;DHT22;3372;48.690;12.362;2023-07-31T04:17:39;16.70;40.90
6672;DHT22;3372;48.690;12.362;2023-07-31T04:20:05;16.60;40.80
6672;DHT22;3372;48.690;12.362;2023-07-31T04:22:31;16.70;41.00
6672;DHT22;3372;48.690;12.362;2023-07-31T04:24:56;16.60;42.40
6672;DHT22;3372;48.690;12.362;2023-07-31T04:27:22;16.70;44.20
6672;DHT22;3372;48.690;12.362;2023-07-31T04:29:47;16.70;43.70
6672;DHT22;3372;48.690;12.362;2023-07-31T04:32:13;16.70;43.20
6672;DHT22;3372;48.690;12.362;2023-07-31T04:34:42;16.80;44.30
6672;DHT22;3372;48.690;12.362;2023-07-31T04:37:07;16.80;44.40
6672;DHT22;3372;48.690;12.362;2023-07-31T04:39:33;16.80;44.50
6672;DHT22;3372;48.690;12.362;2023-07-31T04:41:59;16.80;45.80
6672;DHT22;3372;48.690;12.362;2023-07-31T04:44:24;16.80;45.80
6672;DHT22;3372;48.690;12.362;2023-07-31T04:46:50;16.80;45.60
6672;DHT22;3372;48.690;12.362;2023-07-31T04:49:15;16.90;46.10
6672;DHT22;3372;48.690;12.362;2023-07-31T04:51:41;16.80;46.30
6672;DHT22;3372;48.690;12.362;2023-07-31T04:54:07;16.90;48.00
6672;DHT22;3372;48.690;12.362;2023-07-31T04:56:32;17.00;47.70
6672;DHT22;3372;48.690;12.362;2023-07-31T04:58:58;17.00;47.90
6672;DHT22;3372;48.690;12.362;2023-07-31T05:01:23;17.10;46.50
6672;DHT22;3372;48.690;12.362;2023-07-31T05:03:49;17.10;48.30
6672;DHT22;3372;48.690;12.362;2023-07-31T05:06:14;17.30;48.00
6672;DHT22;3372;48.690;12.362;2023-07-31T05:08:40;17.60;46.90
6672;DHT22;3372;48.690;12.362;2023-07-31T05:11:06;17.80;46.30
6672;DHT22;3372;48.690;12.362;2023-07-31T05:13:32;17.80;45.70
6672;DHT22;3372;48.690;12.362;2023-07-31T05:15:57;17.90;45.50
6672;DHT22;3372;48.690;12.362;2023-07-31T05:18:23;17.90;45.50
6672;DHT22;3372;48.690;12.362;2023-07-31T05:20:48;18.00;45.50
6672;DHT22;3372;48.690;12.362;2023-07-31T05:23:14;18.00;45.10
6672;DHT22;3372;48.690;12.362;2023-07-31T05:25:40;18.00;45.40
6672;DHT22;3372;48.690;12.362;2023-07-31T05:28:05;18.10;45.10
6672;DHT22;3372;48.690;12.362;2023-07-31T05:30:31;18.30;45.20
6672;DHT22;3372;48.690;12.362;2023-07-31T05:32:57;18.80;43.10
6672;DHT22;3372;48.690;12.362;2023-07-31T05:35:22;19.50;40.10
6672;DHT22;3372;48.690;12.362;2023-07-31T05:37:48;20.00;37.50
6672;DHT22;3372;48.690;12.362;2023-07-31T05:40:14;20.50;35.90
6672;DHT22;3372;48.690;12.362;2023-07-31T05:42:40;21.00;34.60
6672;DHT22;3372;48.690;12.362;2023-07-31T05:45:06;21.30;30.90
6672;DHT22;3372;48.690;12.362;2023-07-31T05:47:33;21.30;30.50
6672;DHT22;3372;48.690;12.362;2023-07-31T05:49:58;20.70;30.70
6672;DHT22;3372;48.690;12.362;2023-07-31T05:52:24;21.00;32.20
6672;DHT22;3372;48.690;12.362;2023-07-31T05:54:50;20.90;30.10
6672;DHT22;3372;48.690;12.362;2023-07-31T05:57:15;20.70;30.50
6672;DHT22;3372;48.690;12.362;2023-07-31T05:59:41;20.30;31.90
6672;DHT22;3372;48.690;12.362;2023-07-31T06:02:07;20.00;33.30
6672;DHT22;3372;48.690;12.362;2023-07-31T06:04:33;20.00;34.70
6672;DHT22;3372;48.690;12.362;2023-07-31T06:06:58;20.00;35.40
6672;DHT22;3372;48.690;12.362;2023-07-31T06:09:24;20.00;34.70
6672;DHT22;3372;48.690;12.362;2023-07-31T06:11:51;20.00;35.00
6672;DHT22;3372;48.690;12.362;2023-07-31T06:14:17;19.90;36.30
6672;DHT22;3372;48.690;12.362;2023-07-31T06:16:43;19.90;36.80
6672;DHT22;3372;48.690;12.362;2023-07-31T06:19:09;19.90;35.80
6672;DHT22;3372;48.690;12.362;2023-07-31T06:21:35;20.00;35.80
6672;DHT22;3372;48.690;12.362;2023-07-31T06:24:03;20.10;35.90
6672;DHT22;3372;48.690;12.362;2023-07-31T06:26:29;20.30;34.60
6672;DHT22;3372;48.690;12.362;2023-07-31T06:28:54;20.60;34.70
6672;DHT22;3372;48.690;12.362;2023-07-31T06:31:20;20.70;34.70
6672;DHT22;3372;48.690;12.362;2023-07-31T06:33:49;20.90;33.90
6672;DHT22;3372;48.690;12.362;2023-07-31T06:36:14;21.00;32.50
6672;DHT22;3372;48.690;12.362;2023-07-31T06:38:40;21.10;32.80
6672;DHT22;3372;48.690;12.362;2023-07-31T06:41:05;21.10;32.30
6672;DHT22;3372;48.690;12.362;2023-07-31T06:43:31;21.60;32.70
6672;DHT22;3372;48.690;12.362;2023-07-31T06:45:56;22.00;31.20
6672;DHT22;3372;48.690;12.362;2023-07-31T06:48:22;22.30;29.80
6672;DHT22;3372;48.690;12.362;2023-07-31T06:50:48;22.50;27.90
6672;DHT22;3372;48.690;12.362;2023-07-31T06:53:13;22.70;29.80
6672;DHT22;3372;48.690;12.362;2023-07-31T06:55:39;22.60;27.10
6672;DHT22;3372;48.690;12.362;2023-07-31T06:58:04;22.70;28.00
6672;DHT22;3372;48.690;12.362;2023-07-31T07:00:30;22.60;28.10
6672;DHT22;3372;48.690;12.362;2023-07-31T07:02:56;22.40;27.00
6672;DHT22;3372;48.690;12.362;2023-07-31T07:05:22;22.20;26.20
6672;DHT22;3372;48.690;12.362;2023-07-31T07:07:49;22.30;26.80
6672;DHT22;3372;48.690;12.362;2023-07-31T07:10:14;22.30;27.40
6672;DHT22;3372;48.690;12.362;2023-07-31T07:12:40;22.20;28.90
6672;DHT22;3372;48.690;12.362;2023-07-31T07:15:06;22.20;27.90
6672;DHT22;3372;48.690;12.362;2023-07-31T07:17:37;22.20;27.70
6672;DHT22;3372;48.690;12.362;2023-07-31T07:20:02;22.40;27.60
6672;DHT22;3372;48.690;12.362;2023-07-31T07:22:29;22.40;26.50
6672;DHT22;3372;48.690;12.362;2023-07-31T07:24:54;22.40;26.70
6672;DHT22;3372;48.690;12.362;2023-07-31T07:27:20;22.40;27.50
6672;DHT22;3372;48.690;12.362;2023-07-31T07:29:46;22.20;25.40
6672;DHT22;3372;48.690;12.362;2023-07-31T07:32:12;22.20;26.10
6672;DHT22;3372;48.690;12.362;2023-07-31T07:34:38;21.90;26.30
6672;DHT22;3372;48.690;12.362;2023-07-31T07:37:04;22.00;27.90
6672;DHT22;3372;48.690;12.362;2023-07-31T07:39:29;22.00;28.00
6672;DHT22;3372;48.690;12.362;2023-07-31T07:41:55;21.90;26.60
6672;DHT22;3372;48.690;12.362;2023-07-31T07:44:23;21.90;26.60
6672;DHT22;3372;48.690;12.362;2023-07-31T07:46:49;21.90;27.60
6672;DHT22;3372;48.690;12.362;2023-07-31T07:49:14;21.90;28.50
6672;DHT22;3372;48.690;12.362;2023-07-31T07:51:40;21.80;28.10
6672;DHT22;3372;48.690;12.362;2023-07-31T07:54:06;21.50;28.90
6672;DHT22;3372;48.690;12.362;2023-07-31T07:56:32;21.60;29.00
6672;DHT22;3372;48.690;12.362;2023-07-31T07:58:58;21.50;30.50
6672;DHT22;3372;48.690;12.362;2023-07-31T08:01:24;21.70;29.40
6672;DHT22;3372;48.690;12.362;2023-07-31T08:03:50;21.60;30.20
6672;DHT22;3372;48.690;12.362;2023-07-31T08:06:15;21.70;30.60
6672;DHT22;3372;48.690;12.362;2023-07-31T08:08:41;21.70;29.10
6672;DHT22;3372;48.690;12.362;2023-07-31T08:11:07;21.70;29.00
6672;DHT22;3372;48.690;12.362;2023-07-31T08:13:32;21.90;28.70
6672;DHT22;3372;48.690;12.362;2023-07-31T08:15:58;22.10;28.60
6672;DHT22;3372;48.690;12.362;2023-07-31T08:18:25;22.30;27.10
6672;DHT22;3372;48.690;12.362;2023-07-31T08:20:50;22.30;28.10
6672;DHT22;3372;48.690;12.362;2023-07-31T08:23:16;22.20;23.40
6672;DHT22;3372;48.690;12.362;2023-07-31T08:25:42;22.30;24.80
6672;DHT22;3372;48.690;12.362;2023-07-31T08:28:07;22.90;25.80
6672;DHT22;3372;48.690;12.362;2023-07-31T08:30:33;23.20;24.40
6672;DHT22;3372;48.690;12.362;2023-07-31T08:32:59;23.30;24.00
6672;DHT22;3372;48.690;12.362;2023-07-31T08:35:26;23.30;22.70
6672;DHT22;3372;48.690;12.362;2023-07-31T08:37:53;22.70;19.20
6672;DHT22;3372;48.690;12.362;2023-07-31T08:40:19;22.70;22.50
6672;DHT22;3372;48.690;12.362;2023-07-31T08:42:46;22.50;21.50
6672;DHT22;3372;48.690;12.362;2023-07-31T08:45:17;22.70;24.00
6672;DHT22;3372;48.690;12.362;2023-07-31T08:47:51;22.80;22.50
6672;DHT22;3372;48.690;12.362;2023-07-31T08:50:18;23.00;22.70
6672;DHT22;3372;48.690;12.362;2023-07-31T08:52:46;23.00;21.00
6672;DHT22;3372;48.690;12.362;2023-07-31T08:55:12;23.00;22.30
6672;DHT22;3372;48.690;12.362;2023-07-31T08:57:38;23.10;21.20
6672;DHT22;3372;48.690;12.362;2023-07-31T09:00:06;23.20;24.30
6672;DHT22;3372;48.690;12.362;2023-07-31T09:02:46;23.10;22.30
6672;DHT22;3372;48.690;12.362;2023-07-31T09:05:12;22.90;20.00
6672;DHT22;3372;48.690;12.362;2023-07-31T09:07:38;22.80;22.30
6672;DHT22;3372;48.690;12.362;2023-07-31T09:10:05;22.80;22.50
6672;DHT22;3372;48.690;12.362;2023-07-31T09:12:31;23.00;22.70
6672;DHT22;3372;48.690;12.362;2023-07-31T09:14:58;23.00;21.90
6672;DHT22;3372;48.690;12.362;2023-07-31T09:19:56;23.40;23.80
6672;DHT22;3372;48.690;12.362;2023-07-31T09:22:35;23.30;22.70
6672;DHT22;3372;48.690;12.362;2023-07-31T09:25:33;23.10;21.40
6672;DHT22;3372;48.690;12.362;2023-07-31T09:28:09;23.00;21.90
6672;DHT22;3372;48.690;12.362;2023-07-31T09:30:51;23.00;24.00
6672;DHT22;3372;48.690;12.362;2023-07-31T09:33:18;23.00;20.90
6672;DHT22;3372;48.690;12.362;2023-07-31T09:35:44;23.20;23.30
6672;DHT22;3372;48.690;12.362;2023-07-31T09:38:12;23.20;21.90
6672;DHT22;3372;48.690;12.362;2023-07-31T09:40:40;23.30;24.10
6672;DHT22;3372;48.690;12.362;2023-07-31T09:43:08;23.30;22.90
6672;DHT22;3372;48.690;12.362;2023-07-31T09:45:37;23.10;21.90
6672;DHT22;3372;48.690;12.362;2023-07-31T09:48:03;23.10;22.90
6672;DHT22;3372;48.690;12.362;2023-07-31T09:50:29;23.20;21.30
6672;DHT22;3372;48.690;12.362;2023-07-31T09:52:55;23.10;21.20
6672;DHT22;3372;48.690;12.362;2023-07-31T09:55:20;23.10;22.30
6672;DHT22;3372;48.690;12.362;2023-07-31T09:57:48;22.90;22.30
6672;DHT22;3372;48.690;12.362;2023-07-31T10:00:16;22.90;21.50
6672;DHT22;3372;48.690;12.362;2023-07-31T10:02:45;23.00;22.50
6672;DHT22;3372;48.690;12.362;2023-07-31T10:05:16;23.10;21.80
6672;DHT22;3372;48.690;12.362;2023-07-31T10:07:45;23.30;22.90
6672;DHT22;3372;48.690;12.362;2023-07-31T10:10:14;23.20;21.50
6672;DHT22;3372;48.690;12.362;2023-07-31T10:12:41;23.30;21.90
6672;DHT22;3372;48.690;12.362;2023-07-31T10:15:08;23.60;20.60
6672;DHT22;3372;48.690;12.362;2023-07-31T10:17:35;23.70;21.40
6672;DHT22;3372;48.690;12.362;2023-07-31T10:20:02;23.90;21.20
6672;DHT22;3372;48.690;12.362;2023-07-31T10:22:31;23.80;20.50
6672;DHT22;3372;48.690;12.362;2023-07-31T10:24:59;24.20;20.10
6672;DHT22;3372;48.690;12.362;2023-07-31T10:27:25;24.20;19.20
6672;DHT22;3372;48.690;12.362;2023-07-31T10:29:52;24.50;17.50
6672;DHT22;3372;48.690;12.362;2023-07-31T10:32:20;24.60;18.60
6672;DHT22;3372;48.690;12.362;2023-07-31T10:34:46;24.70;18.60
6672;DHT22;3372;48.690;12.362;2023-07-31T10:37:24;24.80;17.60
6672;DHT22;3372;48.690;12.362;2023-07-31T10:40:00;24.60;19.30
6672;DHT22;3372;48.690;12.362;2023-07-31T10:42:37;24.90;18.50
6672;DHT22;3372;48.690;12.362;2023-07-31T10:45:07;24.80;17.40
6672;DHT22;3372;48.690;12.362;2023-07-31T10:47:42;24.60;16.40
6672;DHT22;3372;48.690;12.362;2023-07-31T10:50:26;24.30;17.80
6672;DHT22;3372;48.690;12.362;2023-07-31T10:52:54;24.50;17.70
6672;DHT22;3372;48.690;12.362;2023-07-31T10:55:28;24.80;18.10
6672;DHT22;3372;48.690;12.362;2023-07-31T10:57:56;24.40;16.90
6672;DHT22;3372;48.690;12.362;2023-07-31T11:00:29;24.30;17.40
6672;DHT22;3372;48.690;12.362;2023-07-31T11:03:00;24.60;17.30
6672;DHT22;3372;48.690;12.362;2023-07-31T11:05:51;24.50;16.40
6672;DHT22;3372;48.690;12.362;2023-07-31T11:09:02;24.50;16.50
6672;DHT22;3372;48.690;12.362;2023-07-31T11:11:11;24.70;17.30
6672;DHT22;3372;48.690;12.362;2023-07-31T11:16:06;24.50;16.10
6672;DHT22;3372;48.690;12.362;2023-07-31T11:18:31;24.40;16.40
6672;DHT22;3372;48.690;12.362;2023-07-31T11:20:57;24.30;16.80
6672;DHT22;3372;48.690;12.362;2023-07-31T11:23:23;24.40;18.20
6672;DHT22;3372;48.690;12.362;2023-07-31T11:25:50;24.40;15.10
6672;DHT22;3372;48.690;12.362;2023-07-31T11:28:16;24.20;15.50
6672;DHT22;3372;48.690;12.362;2023-07-31T11:30:44;24.20;16.40
6672;DHT22;3372;48.690;12.362;2023-07-31T11:33:12;24.50;17.10
6672;DHT22;3372;48.690;12.362;2023-07-31T11:35:45;24.50;15.40
6672;DHT22;3372;48.690;12.362;2023-07-31T11:38:12;24.20;15.90
6672;DHT22;3372;48.690;12.362;2023-07-31T11:40:46;24.20;16.00
6672;DHT22;3372;48.690;12.362;2023-07-31T11:43:11;24.20;15.40
6672;DHT22;3372;48.690;12.362;2023-07-31T11:45:41;24.30;16.00
6672;DHT22;3372;48.690;12.362;2023-07-31T11:48:07;24.20;15.60
6672;DHT22;3372;48.690;12.362;2023-07-31T11:50:33;24.20;17.50
6672;DHT22;3372;48.690;12.362;2023-07-31T11:53:03;24.30;17.90
6672;DHT22;3372;48.690;12.362;2023-07-31T11:55:31;24.40;16.50
6672;DHT22;3372;48.690;12.362;2023-07-31T11:57:59;24.40;15.90
6672;DHT22;3372;48.690;12.362;2023-07-31T12:00:25;24.30;16.70
6672;DHT22;3372;48.690;12.362;2023-07-31T12:02:51;24.20;15.90
6672;DHT22;3372;48.690;12.362;2023-07-31T12:05:18;24.30;16.80
6672;DHT22;3372;48.690;12.362;2023-07-31T12:07:45;24.10;15.40
6672;DHT22;3372;48.690;12.362;2023-07-31T12:10:11;24.10;16.00
6672;DHT22;3372;48.690;12.362;2023-07-31T12:12:56;23.90;16.50
6672;DHT22;3372;48.690;12.362;2023-07-31T12:15:32;24.00;13.60
6672;DHT22;3372;48.690;12.362;2023-07-31T12:17:58;24.30;14.90
6672;DHT22;3372;48.690;12.362;2023-07-31T12:20:24;24.40;15.50
6672;DHT22;3372;48.690;12.362;2023-07-31T12:22:49;24.60;16.60
6672;DHT22;3372;48.690;12.362;2023-07-31T12:25:15;24.60;13.70
6672;DHT22;3372;48.690;12.362;2023-07-31T12:27:44;24.60;15.60
6672;DHT22;3372;48.690;12.362;2023-07-31T12:30:29;24.40;14.30
6672;DHT22;3372;48.690;12.362;2023-07-31T12:32:56;24.70;14.70
6672;DHT22;3372;48.690;12.362;2023-07-31T12:35:22;24.60;14.70
6672;DHT22;3372;48.690;12.362;2023-07-31T12:37:48;24.70;15.00
6672;DHT22;3372;48.690;12.362;2023-07-31T12:40:13;24.70;14.90
6672;DHT22;3372;48.690;12.362;2023-07-31T12:42:40;24.80;14.70
6672;DHT22;3372;48.690;12.362;2023-07-31T12:45:06;24.70;15.40
6672;DHT22;3372;48.690;12.362;2023-07-31T12:47:32;24.60;16.70
6672;DHT22;3372;48.690;12.362;2023-07-31T12:49:57;24.70;15.10
6672;DHT22;3372;48.690;12.362;2023-07-31T12:52:23;24.80;15.80
6672;DHT22;3372;48.690;12.362;2023-07-31T12:54:48;24.90;15.10
6672;DHT22;3372;48.690;12.362;2023-07-31T12:57:14;24.90;15.60
6672;DHT22;3372;48.690;12.362;2023-07-31T12:59:39;24.80;14.50
6672;DHT22;3372;48.690;12.362;2023-07-31T13:02:05;25.10;14.60
6672;DHT22;3372;48.690;12.362;2023-07-31T13:04:30;25.20;15.10
6672;DHT22;3372;48.690;12.362;2023-07-31T13:06:56;25.20;15.20
6672;DHT22;3372;48.690;12.362;2023-07-31T13:09:22;25.20;15.90
6672;DHT22;3372;48.690;12.362;2023-07-31T13:11:47;24.80;13.80
6672;DHT22;3372;48.690;12.362;2023-07-31T13:14:13;25.00;16.20
6672;DHT22;3372;48.690;12.362;2023-07-31T13:16:38;25.00;14.40
6672;DHT22;3372;48.690;12.362;2023-07-31T13:19:04;25.10;15.50
6672;DHT22;3372;48.690;12.362;2023-07-31T13:21:29;24.90;14.00
6672;DHT22;3372;48.690;12.362;2023-07-31T13:23:55;25.20;15.00
6672;DHT22;3372;48.690;12.362;2023-07-31T13:26:23;25.00;13.10
6672;DHT22;3372;48.690;12.362;2023-07-31T13:28:48;25.10;13.60
6672;DHT22;3372;48.690;12.362;2023-07-31T13:31:14;25.40;14.60
6672;DHT22;3372;48.690;12.362;2023-07-31T13:33:40;25.40;14.60
6672;DHT22;3372;48.690;12.362;2023-07-31T13:36:05;25.40;14.50
6672;DHT22;3372;48.690;12.362;2023-07-31T13:38:31;25.30;13.10
6672;DHT22;3372;48.690;12.362;2023-07-31T13:40:57;25.40;15.10
6672;DHT22;3372;48.690;12.362;2023-07-31T13:43:22;25.50;13.40
6672;DHT22;3372;48.690;12.362;2023-07-31T13:45:48;25.40;14.30
6672;DHT22;3372;48.690;12.362;2023-07-31T13:48:13;25.50;14.60
6672;DHT22;3372;48.690;12.362;2023-07-31T13:50:39;25.50;14.60
6672;DHT22;3372;48.690;12.362;2023-07-31T13:53:04;25.50;13.10
6672;DHT22;3372;48.690;12.362;2023-07-31T13:55:30;25.40;14.50
6672;DHT22;3372;48.690;12.362;2023-07-31T13:57:55;25.40;14.40
6672;DHT22;3372;48.690;12.362;2023-07-31T14:00:21;25.40;14.50
6672;DHT22;3372;48.690;12.362;2023-07-31T14:02:47;25.50;13.80
6672;DHT22;3372;48.690;12.362;2023-07-31T14:05:13;25.50;13.40
6672;DHT22;3372;48.690;12.362;2023-07-31T14:07:38;25.60;14.30
6672;DHT22;3372;48.690;12.362;2023-07-31T14:10:04;25.80;13.70
6672;DHT22;3372;48.690;12.362;2023-07-31T14:12:30;25.90;14.30
6672;DHT22;3372;48.690;12.362;2023-07-31T14:14:56;25.80;12.70
6672;DHT22;3372;48.690;12.362;2023-07-31T14:17:21;25.70;14.60
6672;DHT22;3372;48.690;12.362;2023-07-31T14:19:47;25.60;12.60
6672;DHT22;3372;48.690;12.362;2023-07-31T14:22:12;25.60;14.60
6672;DHT22;3372;48.690;12.362;2023-07-31T14:24:38;25.80;13.90
6672;DHT22;3372;48.690;12.362;2023-07-31T14:27:04;26.00;12.90
6672;DHT22;3372;48.690;12.362;2023-07-31T14:29:30;26.00;13.30
6672;DHT22;3372;48.690;12.362;2023-07-31T14:31:55;25.80;11.40
6672;DHT22;3372;48.690;12.362;2023-07-31T14:34:21;25.80;13.10
6672;DHT22;3372;48.690;12.362;2023-07-31T14:36:46;25.70;13.60
6672;DHT22;3372;48.690;12.362;2023-07-31T14:39:12;25.40;12.60
6672;DHT22;3372;48.690;12.362;2023-07-31T14:41:38;25.50;13.90
6672;DHT22;3372;48.690;12.362;2023-07-31T14:44:03;25.50;13.50
6672;DHT22;3372;48.690;12.362;2023-07-31T14:46:29;25.50;12.70
6672;DHT22;3372;48.690;12.362;2023-07-31T14:48:54;25.60;13.60
6672;DHT22;3372;48.690;12.362;2023-07-31T14:51:20;25.60;14.60
6672;DHT22;3372;48.690;12.362;2023-07-31T14:53:46;25.50;12.50
6672;DHT22;3372;48.690;12.362;2023-07-31T14:56:12;25.60;13.70
6672;DHT22;3372;48.690;12.362;2023-07-31T14:58:38;25.90;14.30
6672;DHT22;3372;48.690;12.362;2023-07-31T15:01:03;26.00;12.80
6672;DHT22;3372;48.690;12.362;2023-07-31T15:03:29;25.90;13.10
6672;DHT22;3372;48.690;12.362;2023-07-31T15:05:55;26.00;13.80
6672;DHT22;3372;48.690;12.362;2023-07-31T15:08:21;26.10;13.80
6672;DHT22;3372;48.690;12.362;2023-07-31T15:10:46;25.90;11.30
6672;DHT22;3372;48.690;12.362;2023-07-31T15:13:12;25.40;11.70
6672;DHT22;3372;48.690;12.362;2023-07-31T15:15:37;25.80;13.60
6672;DHT22;3372;48.690;12.362;2023-07-31T15:18:03;25.80;13.90
6672;DHT22;3372;48.690;12.362;2023-07-31T15:20:28;26.10;12.80
6672;DHT22;3372;48.690;12.362;2023-07-31T15:22:55;25.90;13.40
6672;DHT22;3372;48.690;12.362;2023-07-31T15:25:20;25.50;11.60
6672;DHT22;3372;48.690;12.362;2023-07-31T15:27:46;25.50;14.00
6672;DHT22;3372;48.690;12.362;2023-07-31T15:30:12;25.50;14.60
6672;DHT22;3372;48.690;12.362;2023-07-31T15:32:38;25.30;15.00
6672;DHT22;3372;48.690;12.362;2023-07-31T15:35:05;25.20;14.40
6672;DHT22;3372;48.690;12.362;2023-07-31T15:37:30;25.20;14.80
6672;DHT22;3372;48.690;12.362;2023-07-31T15:39:56;25.30;15.20
6672;DHT22;3372;48.690;12.362;2023-07-31T15:42:21;25.20;14.10
6672;DHT22;3372;48.690;12.362;2023-07-31T15:44:47;25.20;14.40
6672;DHT22;3372;48.690;12.362;2023-07-31T15:47:13;25.10;14.40
6672;DHT22;3372;48.690;12.362;2023-07-31T15:49:38;25.10;14.10
6672;DHT22;3372;48.690;12.362;2023-07-31T15:52:04;25.10;14.60
6672;DHT22;3372;48.690;12.362;2023-07-31T15:54:30;25.00;14.40
6672;DHT22;3372;48.690;12.362;2023-07-31T15:56:56;25.10;15.70